createdAt,value
2019-05-06T00:01:01.812Z,74.54
2019-05-06T00:04:06.317Z,74.67
2019-05-06T00:07:10.762Z,74.79
2019-05-06T00:10:31.360Z,74.47
2019-05-06T00:13:35.797Z,74.53
2019-05-06T00:16:40.517Z,74.53
2019-05-06T00:19:45.023Z,74.62
2019-05-06T00:22:50.529Z,75.00
2019-05-06T00:25:56.613Z,74.88
2019-05-06T00:29:04.465Z,75.07
2019-05-06T00:32:09.391Z,74.73
2019-05-06T00:35:14.239Z,74.74
2019-05-06T00:38:18.725Z,74.99
2019-05-06T00:41:24.864Z,75.10
2019-05-06T00:44:29.326Z,75.34
2019-05-06T00:47:34.179Z,75.00
2019-05-06T00:50:38.903Z,74.98
2019-05-06T00:54:04.154Z,75.00
2019-05-06T00:57:08.949Z,74.28
2019-05-06T01:00:17.563Z,74.11
2019-05-06T01:03:23.940Z,73.98
2019-05-06T01:06:28.161Z,74.29
2019-05-06T01:09:35.137Z,74.41
2019-05-06T01:12:43.445Z,75.33
2019-05-06T01:15:47.676Z,74.57
2019-05-06T01:18:54.246Z,75.59
2019-05-06T01:21:58.887Z,76.07
2019-05-06T01:25:03.939Z,75.70
2019-05-06T01:28:08.614Z,75.92
2019-05-06T01:31:13.995Z,75.60
2019-05-06T01:34:18.598Z,75.48
2019-05-06T01:37:24.023Z,75.24
2019-05-06T01:40:30.834Z,74.87
2019-05-06T01:43:36.921Z,74.63
2019-05-06T01:46:41.360Z,74.05
2019-05-06T01:49:46.080Z,73.83
2019-05-06T01:52:50.900Z,73.68
2019-05-06T01:55:55.627Z,73.99
2019-05-06T01:59:00.061Z,73.51
2019-05-06T02:02:05.709Z,74.02
2019-05-06T02:05:10.848Z,73.72
2019-05-06T02:08:15.574Z,73.08
2019-05-06T02:11:20.091Z,72.35
2019-05-06T02:14:24.833Z,73.05
2019-05-06T02:17:29.270Z,72.33
2019-05-06T02:20:35.621Z,71.80
2019-05-06T02:23:41.705Z,72.41
2019-05-06T02:26:46.455Z,72.91
2019-05-06T02:29:56.300Z,72.03
2019-05-06T02:33:11.524Z,71.35
2019-05-06T02:36:17.929Z,71.82
2019-05-06T02:39:23.502Z,71.64
2019-05-06T02:42:28.411Z,72.07
2019-05-06T02:45:33.687Z,71.57
2019-05-06T02:48:56.203Z,71.70
2019-05-06T02:52:03.020Z,72.05
2019-05-06T02:55:08.314Z,71.20
2019-05-06T02:58:14.840Z,71.58
2019-05-06T03:01:18.912Z,72.49
2019-05-06T03:04:23.722Z,72.28
2019-05-06T03:07:28.271Z,72.69
2019-05-06T03:10:33.041Z,72.78
2019-05-06T03:13:37.822Z,72.74
2019-05-06T03:16:43.918Z,73.22
2019-05-06T03:19:52.699Z,72.82
2019-05-06T03:22:58.367Z,73.59
2019-05-06T03:26:05.978Z,74.40
2019-05-06T03:29:09.569Z,74.03
2019-05-06T03:32:16.611Z,74.61
2019-05-06T03:35:36.287Z,74.93
2019-05-06T03:38:27.238Z,75.22
2019-05-06T03:41:33.854Z,75.23
2019-05-06T03:44:39.485Z,75.41
2019-05-06T03:47:54.560Z,75.85
2019-05-06T03:50:59.374Z,75.67
2019-05-06T03:54:05.377Z,74.85
2019-05-06T03:57:09.856Z,74.89
2019-05-06T04:00:16.282Z,74.70
2019-05-06T04:03:33.764Z,74.93
2019-05-06T04:06:28.668Z,74.77
2019-05-06T04:09:36.945Z,74.68
2019-05-06T04:12:40.171Z,75.02
2019-05-06T04:16:04.150Z,75.28
2019-05-06T04:19:18.987Z,75.53
2019-05-06T04:22:34.703Z,75.37
2019-05-06T04:25:44.024Z,74.47
2019-05-06T04:28:48.467Z,74.93
2019-05-06T04:31:53.975Z,75.37
2019-05-06T04:34:59.533Z,75.71
2019-05-06T04:38:04.609Z,75.13
2019-05-06T04:41:09.106Z,75.46
2019-05-06T04:44:14.161Z,75.29
2019-05-06T04:47:19.008Z,74.83
2019-05-06T04:50:24.374Z,75.32
2019-05-06T04:53:29.082Z,75.28
2019-05-06T04:56:34.659Z,75.47
2019-05-06T04:59:39.102Z,75.50
2019-05-06T05:02:46.437Z,74.68
2019-05-06T05:05:52.885Z,75.01
2019-05-06T05:08:56.846Z,74.47
2019-05-06T05:12:08.997Z,74.96
2019-05-06T05:15:16.097Z,74.77
2019-05-06T05:18:25.173Z,74.79
2019-05-06T05:21:32.148Z,74.16
2019-05-06T05:24:37.588Z,73.62
2019-05-06T05:27:42.772Z,73.26
2019-05-06T05:30:47.359Z,73.07
2019-05-06T05:33:52.664Z,73.71
2019-05-06T05:36:57.248Z,71.97
2019-05-06T05:40:03.110Z,72.24
2019-05-06T05:43:13.049Z,71.74
2019-05-06T05:46:17.495Z,72.36
2019-05-06T05:49:24.634Z,71.69
2019-05-06T05:52:29.193Z,72.08
2019-05-06T05:55:34.077Z,71.87
2019-05-06T05:58:38.529Z,70.58
2019-05-06T06:01:43.553Z,71.28
2019-05-06T06:04:56.850Z,71.00
2019-05-06T06:07:55.290Z,71.19
2019-05-06T06:11:01.434Z,71.36
2019-05-06T06:14:07.647Z,70.62
2019-05-06T06:17:16.728Z,70.25
2019-05-06T06:20:38.685Z,70.96
2019-05-06T06:23:45.138Z,70.34
2019-05-06T06:26:51.958Z,70.67
2019-05-06T06:29:56.421Z,69.52
2019-05-06T06:33:02.543Z,69.80
2019-05-06T06:36:08.822Z,69.22
2019-05-06T06:39:14.901Z,69.96
2019-05-06T06:42:19.413Z,69.55
2019-05-06T06:45:24.209Z,68.87
2019-05-06T06:48:29.012Z,68.22
2019-05-06T06:51:33.777Z,68.12
2019-05-06T06:54:38.204Z,69.26
2019-05-06T06:57:56.575Z,69.56
2019-05-06T07:01:03.136Z,69.29
2019-05-06T07:04:11.189Z,68.18
2019-05-06T07:07:16.757Z,68.55
2019-05-06T07:10:42.906Z,67.36
2019-05-06T07:13:53.164Z,68.26
2019-05-06T07:16:57.676Z,68.30
2019-05-06T07:20:18.921Z,68.39
2019-05-06T07:23:32.685Z,68.26
2019-05-06T07:26:48.102Z,67.47
2019-05-06T07:29:52.552Z,68.96
2019-05-06T07:32:56.997Z,71.16
2019-05-06T07:36:02.210Z,70.85
2019-05-06T07:39:08.814Z,70.21
2019-05-06T07:42:22.722Z,70.55
2019-05-06T07:45:32.915Z,71.68
2019-05-06T07:48:37.445Z,72.32
2019-05-06T07:51:42.026Z,72.22
2019-05-06T07:54:46.897Z,72.43
2019-05-06T07:57:52.540Z,71.47
2019-05-06T08:00:57.070Z,70.47
2019-05-06T08:04:02.570Z,71.14
2019-05-06T08:07:07.456Z,71.34
2019-05-06T08:10:13.563Z,70.51
2019-05-06T08:13:18.452Z,70.78
2019-05-06T08:16:23.362Z,70.02
2019-05-06T08:19:27.807Z,68.46
2019-05-06T08:22:45.859Z,66.58
2019-05-06T08:25:52.968Z,66.82
2019-05-06T08:28:57.840Z,65.11
2019-05-06T08:32:02.990Z,66.06
2019-05-06T08:35:10.037Z,63.97
2019-05-06T08:38:14.184Z,65.23
2019-05-06T08:41:18.621Z,65.54
2019-05-06T08:44:23.373Z,65.38
2019-05-06T08:47:28.210Z,65.68
2019-05-06T08:50:46.185Z,67.10
2019-05-06T08:53:53.330Z,68.71
2019-05-06T08:56:58.108Z,68.38
2019-05-06T09:00:03.470Z,68.30
2019-05-06T09:03:08.122Z,69.11
2019-05-06T09:06:26.881Z,67.94
2019-05-06T09:09:19.038Z,69.75
2019-05-06T09:12:23.480Z,69.54
2019-05-06T09:15:27.912Z,68.88
2019-05-06T09:18:32.942Z,66.74
2019-05-06T09:21:37.525Z,66.48
2019-05-06T09:24:42.727Z,65.40
2019-05-06T09:27:47.333Z,65.45
2019-05-06T09:31:02.388Z,66.00
2019-05-06T09:34:08.469Z,65.67
2019-05-06T09:37:14.840Z,65.40
2019-05-06T09:40:19.762Z,62.35
2019-05-06T09:43:24.208Z,63.77
2019-05-06T09:46:28.638Z,60.67
2019-05-06T09:49:34.996Z,61.80
2019-05-06T09:52:42.507Z,61.05
2019-05-06T09:55:45.877Z,59.29
2019-05-06T09:58:52.765Z,60.14
2019-05-06T10:01:56.779Z,58.67
2019-05-06T10:05:03.659Z,55.28
2019-05-06T10:08:07.407Z,56.71
2019-05-06T10:11:11.913Z,56.13
2019-05-06T10:14:16.371Z,52.93
2019-05-06T10:17:21.140Z,51.83
2019-05-06T10:20:25.599Z,51.51
2019-05-06T10:23:32.636Z,53.54
2019-05-06T10:26:38.205Z,48.56
2019-05-06T10:29:47.247Z,48.86
2019-05-06T10:32:56.260Z,50.07
2019-05-06T10:36:04.592Z,49.33
2019-05-06T10:39:12.686Z,48.24
2019-05-06T10:42:23.079Z,49.34
2019-05-06T10:45:32.393Z,47.50
2019-05-06T10:48:36.539Z,43.73
2019-05-06T10:51:53.006Z,44.23
2019-05-06T10:54:57.633Z,45.93
2019-05-06T10:58:02.751Z,46.89
2019-05-06T11:01:09.215Z,46.43
2019-05-06T11:04:13.664Z,46.06
2019-05-06T11:07:29.330Z,45.84
2019-05-06T11:10:29.554Z,46.46
2019-05-06T11:13:32.259Z,46.01
2019-05-06T11:16:37.212Z,47.15
2019-05-06T11:19:42.778Z,47.42
2019-05-06T11:22:47.703Z,49.28
2019-05-06T11:25:52.747Z,48.09
2019-05-06T11:28:58.920Z,47.97
2019-05-06T11:32:05.008Z,50.11
2019-05-06T11:35:22.705Z,51.70
2019-05-06T11:38:26.415Z,54.30
2019-05-06T11:41:32.269Z,55.73
2019-05-06T11:44:37.088Z,58.34
2019-05-06T11:47:42.174Z,57.12
2019-05-06T11:50:48.698Z,57.36
2019-05-06T11:53:54.195Z,57.62
2019-05-06T11:56:58.914Z,56.11
2019-05-06T12:00:04.203Z,55.79
2019-05-06T12:03:08.642Z,54.20
2019-05-06T12:06:13.300Z,53.57
2019-05-06T12:09:17.708Z,51.18
2019-05-06T12:12:23.328Z,51.60
2019-05-06T12:15:27.977Z,48.61
2019-05-06T12:18:32.717Z,47.97
2019-05-06T12:21:37.167Z,47.38
2019-05-06T12:24:43.108Z,47.54
2019-05-06T12:27:47.882Z,47.72
2019-05-06T12:30:52.662Z,47.29
2019-05-06T12:33:57.111Z,48.09
2019-05-06T12:37:03.198Z,43.72
2019-05-06T12:40:08.180Z,44.59
2019-05-06T12:43:24.366Z,43.75
2019-05-06T12:46:43.042Z,41.77
2019-05-06T12:49:47.641Z,40.85
2019-05-06T12:52:52.703Z,40.54
2019-05-06T12:55:57.500Z,41.02
2019-05-06T12:59:02.281Z,41.77
2019-05-06T13:02:07.203Z,41.75
2019-05-06T13:05:12.612Z,42.11
2019-05-06T13:08:20.173Z,43.19
2019-05-06T13:11:23.561Z,41.19
2019-05-06T13:14:28.000Z,39.35
2019-05-06T13:17:32.991Z,38.99
2019-05-06T13:20:38.297Z,41.40
2019-05-06T13:23:44.388Z,41.50
2019-05-06T13:26:48.840Z,42.19
2019-05-06T13:29:53.356Z,42.19
2019-05-06T13:33:13.581Z,42.52
2019-05-06T13:36:17.711Z,40.99
2019-05-06T13:39:23.724Z,40.36
2019-05-06T13:42:30.010Z,39.69
2019-05-06T13:45:35.556Z,39.01
2019-05-06T13:48:57.705Z,41.61
2019-05-06T13:52:04.623Z,41.37
2019-05-06T13:55:09.537Z,39.79
2019-05-06T13:58:14.246Z,37.35
2019-05-06T14:01:29.120Z,35.00
2019-05-06T14:04:33.840Z,36.22
2019-05-06T14:07:38.676Z,35.76
2019-05-06T14:10:43.402Z,34.67
2019-05-06T14:13:47.855Z,34.97
2019-05-06T14:16:53.399Z,36.43
2019-05-06T14:19:58.314Z,35.54
2019-05-06T14:23:03.045Z,34.34
2019-05-06T14:26:22.897Z,36.00
2019-05-06T14:29:28.436Z,36.93
2019-05-06T14:32:33.000Z,37.64
2019-05-06T14:35:37.408Z,35.20
2019-05-06T14:38:42.944Z,36.48
2019-05-06T14:41:49.234Z,37.38
2019-05-06T14:44:53.687Z,39.47
2019-05-06T14:47:58.617Z,40.65
2019-05-06T14:51:03.301Z,41.50
2019-05-06T14:54:07.746Z,42.33
2019-05-06T14:57:13.830Z,41.95
2019-05-06T15:00:22.922Z,41.08
2019-05-06T15:03:27.072Z,39.09
2019-05-06T15:06:33.093Z,39.93
2019-05-06T15:09:53.609Z,39.43
2019-05-06T15:12:44.557Z,40.37
2019-05-06T15:15:49.272Z,40.38
2019-05-06T15:18:53.713Z,39.39
2019-05-06T15:21:58.167Z,41.38
2019-05-06T15:25:02.615Z,39.01
2019-05-06T15:28:07.066Z,37.42
2019-05-06T15:31:15.578Z,37.54
2019-05-06T15:34:38.339Z,37.06
2019-05-06T15:37:55.952Z,37.41
2019-05-06T15:41:00.630Z,36.77
2019-05-06T15:44:05.350Z,36.91
2019-05-06T15:47:10.171Z,37.39
2019-05-06T15:50:15.766Z,38.28
2019-05-06T15:53:22.314Z,38.82
2019-05-06T15:56:26.738Z,37.19
2019-05-06T15:59:33.594Z,37.38
2019-05-06T16:02:38.224Z,37.89
2019-05-06T16:05:43.712Z,36.25
2019-05-06T16:08:48.384Z,36.84
2019-05-06T16:11:53.535Z,36.74
2019-05-06T16:14:58.595Z,37.74
2019-05-06T16:18:04.519Z,37.80
2019-05-06T16:21:09.251Z,37.43
2019-05-06T16:24:34.614Z,37.38
2019-05-06T16:27:38.389Z,37.89
2019-05-06T16:30:43.124Z,39.02
2019-05-06T16:33:47.558Z,39.60
2019-05-06T16:36:52.004Z,37.89
2019-05-06T16:39:56.922Z,39.71
2019-05-06T16:43:02.104Z,40.74
2019-05-06T16:46:06.666Z,40.81
2019-05-06T16:49:14.000Z,40.46
2019-05-06T16:52:17.987Z,40.55
2019-05-06T16:55:40.343Z,41.03
2019-05-06T16:58:47.411Z,40.79
2019-05-06T17:01:52.381Z,41.06
2019-05-06T17:05:15.157Z,42.24
2019-05-06T17:08:20.037Z,42.27
2019-05-06T17:11:30.455Z,43.60
2019-05-06T17:14:32.177Z,43.56
2019-05-06T17:17:43.712Z,41.34
2019-05-06T17:20:45.231Z,42.69
2019-05-06T17:23:52.066Z,43.24
2019-05-06T17:26:56.523Z,43.56
2019-05-06T17:30:02.749Z,41.13
2019-05-06T17:33:17.880Z,43.03
2019-05-06T17:36:24.525Z,41.07
2019-05-06T17:39:29.253Z,43.26
2019-05-06T17:42:33.727Z,42.96
2019-05-06T17:45:40.050Z,44.09
2019-05-06T17:48:54.587Z,43.44
2019-05-06T17:52:06.504Z,45.46
2019-05-06T17:55:11.871Z,45.91
2019-05-06T17:58:17.123Z,45.71
2019-05-06T18:01:36.588Z,46.17
2019-05-06T18:04:43.081Z,44.16
2019-05-06T18:07:48.086Z,43.88
2019-05-06T18:10:52.823Z,45.92
2019-05-06T18:13:57.547Z,45.14
2019-05-06T18:17:03.596Z,46.83
2019-05-06T18:20:08.767Z,47.33
2019-05-06T18:23:13.477Z,47.09
2019-05-06T18:26:18.839Z,48.71
2019-05-06T18:29:23.284Z,51.83
2019-05-06T18:32:28.194Z,51.84
2019-05-06T18:35:32.934Z,53.06
2019-05-06T18:38:37.747Z,56.29
2019-05-06T18:41:42.495Z,55.73
2019-05-06T18:44:46.930Z,56.51
2019-05-06T18:47:53.153Z,57.52
2019-05-06T18:50:57.703Z,58.37
2019-05-06T18:54:03.070Z,57.70
2019-05-06T18:57:07.972Z,57.52
2019-05-06T19:00:13.421Z,58.53
2019-05-06T19:03:18.148Z,59.04
2019-05-06T19:06:23.258Z,58.91
2019-05-06T19:09:35.453Z,59.47
2019-05-06T19:12:41.495Z,59.67
2019-05-06T19:15:46.099Z,60.13
2019-05-06T19:18:52.260Z,59.99
2019-05-06T19:21:56.993Z,60.62
2019-05-06T19:25:02.773Z,60.52
2019-05-06T19:28:07.559Z,60.91
2019-05-06T19:31:12.450Z,60.80
2019-05-06T19:34:16.917Z,60.27
2019-05-06T19:37:23.330Z,60.62
2019-05-06T19:40:27.973Z,60.52
2019-05-06T19:43:32.947Z,60.44
2019-05-06T19:46:37.443Z,61.82
2019-05-06T19:49:42.736Z,62.37
2019-05-06T19:52:47.186Z,62.03
2019-05-06T19:55:52.998Z,62.08
2019-05-06T19:58:57.846Z,62.04
2019-05-06T20:02:02.371Z,62.61
2019-05-06T20:05:13.151Z,63.05
2019-05-06T20:08:32.636Z,62.26
2019-05-06T20:11:39.008Z,63.60
2019-05-06T20:14:43.445Z,63.53
2019-05-06T20:17:47.874Z,63.60
2019-05-06T20:20:52.837Z,62.94
2019-05-06T20:23:57.442Z,63.15
2019-05-06T20:27:02.743Z,63.39
2019-05-06T20:30:07.805Z,64.85
2019-05-06T20:33:12.603Z,65.41
2019-05-06T20:36:17.447Z,64.52
2019-05-06T20:39:23.022Z,64.84
2019-05-06T20:42:27.644Z,64.91
2019-05-06T20:45:35.250Z,65.16
2019-05-06T20:48:38.827Z,65.51
2019-05-06T20:51:43.269Z,65.39
2019-05-06T20:54:47.981Z,64.97
2019-05-06T20:57:53.004Z,65.31
2019-05-06T21:00:57.633Z,65.26
2019-05-06T21:04:02.331Z,65.18
2019-05-06T21:08:04.494Z,65.67
2019-05-06T21:11:22.008Z,65.96
2019-05-06T21:14:15.422Z,65.81
2019-05-06T21:17:20.234Z,65.57
2019-05-06T21:20:24.665Z,65.50
2019-05-06T21:23:29.401Z,65.72
2019-05-06T21:26:33.838Z,65.73
2019-05-06T21:29:38.680Z,65.65
2019-05-06T21:32:43.096Z,65.59
2019-05-06T21:35:52.446Z,65.66
2019-05-06T21:38:57.469Z,65.48
2019-05-06T21:42:07.207Z,65.00
2019-05-06T21:45:12.726Z,65.36
2019-05-06T21:48:17.341Z,65.35
2019-05-06T21:51:22.252Z,65.91
2019-05-06T21:54:26.784Z,66.18
2019-05-06T21:57:31.470Z,65.70
2019-05-06T22:00:53.339Z,65.81
2019-05-06T22:03:57.853Z,65.84
2019-05-06T22:07:03.092Z,65.97
2019-05-06T22:10:09.380Z,65.46
2019-05-06T22:13:14.668Z,64.95
2019-05-06T22:16:19.616Z,65.23
2019-05-06T22:19:24.049Z,65.54
2019-05-06T22:22:32.905Z,65.14
2019-05-06T22:25:37.597Z,65.34
2019-05-06T22:28:42.640Z,65.70
2019-05-06T22:31:47.570Z,65.26
2019-05-06T22:34:52.301Z,65.53
2019-05-06T22:37:56.741Z,65.40
2019-05-06T22:41:02.423Z,65.36
2019-05-06T22:44:13.815Z,64.96
2019-05-06T22:47:13.370Z,65.14
2019-05-06T22:50:17.951Z,65.14
2019-05-06T22:53:24.848Z,64.53
2019-05-06T22:56:28.546Z,64.58
2019-05-06T22:59:33.135Z,65.01
2019-05-06T23:02:39.155Z,64.88
2019-05-06T23:05:43.926Z,65.29
2019-05-06T23:08:48.335Z,65.91
2019-05-06T23:11:52.778Z,66.22
2019-05-06T23:14:57.492Z,66.70
2019-05-06T23:18:02.371Z,66.59
2019-05-06T23:21:07.249Z,66.64
2019-05-06T23:24:13.129Z,67.14
2019-05-06T23:27:17.812Z,67.29
2019-05-06T23:30:23.616Z,66.98
2019-05-06T23:33:29.044Z,67.23
2019-05-06T23:37:02.836Z,67.82
2019-05-06T23:41:02.667Z,68.42
2019-05-06T23:45:02.604Z,68.43
2019-05-06T23:49:01.992Z,68.76
2019-05-06T23:53:02.977Z,69.42
2019-05-06T23:56:39.948Z,69.66
2019-05-06T23:59:44.681Z,69.89
